createdAt,value
2022-12-06T00:01:37.188Z,7.45
2022-12-06T00:04:06.766Z,8.43
2022-12-06T00:06:37.912Z,8.05
2022-12-06T00:09:05.150Z,6.18
2022-12-06T00:11:34.560Z,8.07
2022-12-06T00:14:05.307Z,7.10
2022-12-06T00:16:33.957Z,7.72
2022-12-06T00:19:01.671Z,7.20
2022-12-06T00:21:37.002Z,6.95
2022-12-06T00:24:11.923Z,7.28
2022-12-06T00:26:41.588Z,8.30
2022-12-06T00:29:12.785Z,7.38
2022-12-06T00:31:39.998Z,6.13
2022-12-06T00:34:09.441Z,6.32
2022-12-06T00:36:38.913Z,7.30
2022-12-06T00:39:09.476Z,8.60
2022-12-06T00:41:42.270Z,6.28
2022-12-06T00:44:09.890Z,8.10
2022-12-06T00:46:39.995Z,7.25
2022-12-06T00:49:09.734Z,6.93
2022-12-06T00:51:39.741Z,7.03
2022-12-06T00:54:07.519Z,6.40
2022-12-06T00:56:36.199Z,7.18
2022-12-06T00:59:03.813Z,6.40
2022-12-06T01:01:36.390Z,7.43
2022-12-06T01:04:06.123Z,6.88
2022-12-06T01:06:35.281Z,5.72
2022-12-06T01:09:07.212Z,5.68
2022-12-06T01:11:34.846Z,6.53
2022-12-06T01:14:04.947Z,6.20
2022-12-06T01:16:32.909Z,6.43
2022-12-06T01:19:07.860Z,6.32
2022-12-06T01:21:37.034Z,6.90
2022-12-06T01:24:06.663Z,7.03
2022-12-06T01:26:37.193Z,6.15
2022-12-06T01:29:04.639Z,7.40
2022-12-06T01:31:38.973Z,5.65
2022-12-06T01:34:15.866Z,5.17
2022-12-06T01:36:45.668Z,7.03
2022-12-06T01:39:12.860Z,5.13
2022-12-06T01:41:40.427Z,6.03
2022-12-06T01:44:30.384Z,4.90
2022-12-06T01:46:57.487Z,6.93
2022-12-06T01:49:34.840Z,6.20
2022-12-06T01:52:10.041Z,6.00
2022-12-06T01:54:40.325Z,6.07
2022-12-06T01:57:11.231Z,6.15
2022-12-06T01:59:38.329Z,5.47
2022-12-06T02:02:07.976Z,6.05
2022-12-06T02:04:36.152Z,5.93
2022-12-06T02:07:06.010Z,5.93
2022-12-06T02:09:36.755Z,6.45
2022-12-06T02:12:11.552Z,6.82
2022-12-06T02:14:43.594Z,5.97
2022-12-06T02:17:32.007Z,4.55
2022-12-06T02:20:19.795Z,4.85
2022-12-06T02:23:18.153Z,5.88
2022-12-06T02:25:54.407Z,5.32
2022-12-06T02:28:40.083Z,5.72
2022-12-06T02:31:43.576Z,4.88
2022-12-06T02:34:25.114Z,5.28
2022-12-06T02:37:09.580Z,5.28
2022-12-06T02:40:00.011Z,5.20
2022-12-06T02:42:44.508Z,5.57
2022-12-06T02:45:21.045Z,5.03
2022-12-06T02:47:50.105Z,5.65
2022-12-06T02:50:28.261Z,5.82
2022-12-06T02:53:00.145Z,4.80
2022-12-06T02:55:32.003Z,5.05
2022-12-06T02:57:59.283Z,4.85
2022-12-06T03:00:36.931Z,5.53
2022-12-06T03:03:30.010Z,6.47
2022-12-06T03:06:02.950Z,5.00
2022-12-06T03:08:47.919Z,5.57
2022-12-06T03:11:18.596Z,6.80
2022-12-06T03:13:55.785Z,4.85
2022-12-06T03:16:26.619Z,6.00
2022-12-06T03:19:21.094Z,5.32
2022-12-06T03:22:39.633Z,5.15
2022-12-06T03:25:08.336Z,5.35
2022-12-06T03:27:36.424Z,5.40
2022-12-06T03:30:08.314Z,4.95
2022-12-06T03:32:39.040Z,5.80
2022-12-06T03:35:10.401Z,4.93
2022-12-06T03:37:49.253Z,5.43
2022-12-06T03:40:24.313Z,4.63
2022-12-06T03:42:52.034Z,6.70
2022-12-06T03:45:28.809Z,5.95
2022-12-06T03:48:04.170Z,5.53
2022-12-06T03:50:41.780Z,4.85
2022-12-06T03:53:09.023Z,5.10
2022-12-06T03:55:42.273Z,5.82
2022-12-06T03:58:11.609Z,6.65
2022-12-06T04:00:38.896Z,4.85
2022-12-06T04:03:06.061Z,5.57
2022-12-06T04:05:35.345Z,4.70
2022-12-06T04:08:04.824Z,5.15
2022-12-06T04:10:31.934Z,6.13
2022-12-06T04:13:05.887Z,5.32
2022-12-06T04:15:38.793Z,6.05
2022-12-06T04:18:13.429Z,7.97
2022-12-06T04:21:15.189Z,5.75
2022-12-06T04:23:45.289Z,6.03
2022-12-06T04:26:14.705Z,7.40
2022-12-06T04:29:02.427Z,6.38
2022-12-06T04:31:48.187Z,6.45
2022-12-06T04:34:35.010Z,5.45
2022-12-06T04:37:21.245Z,7.00
2022-12-06T04:39:50.842Z,6.25
2022-12-06T04:42:38.586Z,5.47
2022-12-06T04:45:08.456Z,6.95
2022-12-06T04:47:35.642Z,6.28
2022-12-06T04:50:03.536Z,5.13
2022-12-06T04:52:35.441Z,9.82
2022-12-06T04:55:08.347Z,5.67
2022-12-06T04:57:35.408Z,5.70
2022-12-06T05:00:02.900Z,7.55
2022-12-06T05:02:30.256Z,8.18
2022-12-06T05:04:57.416Z,6.00
2022-12-06T05:07:26.865Z,6.28
2022-12-06T05:09:53.963Z,5.70
2022-12-06T05:12:21.008Z,4.90
2022-12-06T05:14:48.050Z,4.35
2022-12-06T05:17:15.101Z,6.00
2022-12-06T05:19:44.513Z,4.63
2022-12-06T05:22:14.002Z,5.10
2022-12-06T05:24:43.136Z,18.05
2022-12-06T05:27:10.230Z,4.60
2022-12-06T05:29:37.402Z,5.22
2022-12-06T05:32:06.957Z,6.82
2022-12-06T05:34:38.487Z,6.32
2022-12-06T05:37:05.548Z,6.22
2022-12-06T05:39:32.673Z,7.70
2022-12-06T05:41:59.760Z,7.82
2022-12-06T05:44:29.067Z,6.53
2022-12-06T05:46:56.117Z,8.80
2022-12-06T05:49:26.182Z,4.53
2022-12-06T05:51:53.258Z,5.30
2022-12-06T05:54:20.542Z,5.43
2022-12-06T05:56:52.206Z,5.72
2022-12-06T05:59:21.533Z,4.78
2022-12-06T06:01:53.001Z,4.78
2022-12-06T06:04:22.362Z,5.32
2022-12-06T06:06:49.490Z,6.88
2022-12-06T06:09:18.882Z,5.18
2022-12-06T06:11:48.168Z,5.38
2022-12-06T06:14:17.637Z,5.53
2022-12-06T06:16:47.058Z,5.60
2022-12-06T06:19:14.391Z,5.75
2022-12-06T06:21:41.550Z,5.13
2022-12-06T06:24:09.092Z,7.13
2022-12-06T06:26:38.588Z,8.27
2022-12-06T06:29:05.625Z,5.50
2022-12-06T06:31:32.813Z,7.95
2022-12-06T06:34:00.040Z,6.68
2022-12-06T06:36:29.177Z,7.32
2022-12-06T06:38:56.359Z,7.78
2022-12-06T06:41:23.517Z,7.55
2022-12-06T06:43:53.004Z,6.68
2022-12-06T06:46:27.605Z,8.55
2022-12-06T06:48:59.554Z,7.18
2022-12-06T06:51:30.468Z,7.68
2022-12-06T06:53:57.987Z,7.35
2022-12-06T06:56:26.000Z,7.20
2022-12-06T06:58:53.205Z,9.38
2022-12-06T07:01:23.680Z,7.57
2022-12-06T07:03:54.187Z,7.85
2022-12-06T07:06:21.314Z,7.82
2022-12-06T07:08:48.545Z,6.40
2022-12-06T07:11:16.267Z,7.25
2022-12-06T07:13:51.263Z,5.82
2022-12-06T07:16:19.801Z,12.23
2022-12-06T07:18:49.101Z,8.05
2022-12-06T07:21:19.135Z,8.27
2022-12-06T07:23:46.581Z,7.85
2022-12-06T07:26:21.443Z,8.90
2022-12-06T07:28:51.693Z,12.00
2022-12-06T07:31:24.829Z,10.18
2022-12-06T07:36:26.072Z,12.50
2022-12-06T07:38:55.460Z,9.80
2022-12-06T07:41:44.961Z,7.88
2022-12-06T07:44:55.546Z,9.70
2022-12-06T07:47:31.900Z,8.45
2022-12-06T07:50:01.984Z,16.30
2022-12-06T07:52:34.428Z,9.50
2022-12-06T07:55:02.281Z,9.43
2022-12-06T07:57:29.359Z,10.98
2022-12-06T07:59:58.969Z,18.02
2022-12-06T08:02:30.132Z,35.10
2022-12-06T08:04:58.541Z,38.38
2022-12-06T08:07:26.412Z,27.13
2022-12-06T08:09:54.555Z,26.98
2022-12-06T08:12:22.080Z,27.25
2022-12-06T08:14:49.182Z,26.52
2022-12-06T08:17:18.767Z,22.00
2022-12-06T08:19:46.924Z,21.33
2022-12-06T08:22:18.689Z,18.05
2022-12-06T08:24:48.146Z,18.13
2022-12-06T08:27:20.150Z,18.55
2022-12-06T08:29:49.547Z,16.55
2022-12-06T08:32:19.169Z,20.58
2022-12-06T08:34:46.342Z,19.08
2022-12-06T08:37:13.448Z,23.80
2022-12-06T08:39:42.808Z,15.20
2022-12-06T08:42:14.440Z,30.92
2022-12-06T08:44:43.795Z,19.38
2022-12-06T08:47:11.121Z,17.38
2022-12-06T08:49:38.241Z,14.40
2022-12-06T08:52:05.344Z,13.55
2022-12-06T08:54:35.560Z,16.98
2022-12-06T08:57:05.099Z,13.10
2022-12-06T08:59:36.886Z,13.98
2022-12-06T09:02:04.094Z,19.13
2022-12-06T09:04:33.592Z,14.65
2022-12-06T09:07:07.426Z,14.18
2022-12-06T09:09:39.634Z,11.27
2022-12-06T09:12:11.289Z,11.05
2022-12-06T09:14:38.563Z,15.02
2022-12-06T09:17:06.237Z,11.18
2022-12-06T09:19:38.152Z,13.27
2022-12-06T09:22:05.319Z,14.40
2022-12-06T09:24:34.762Z,9.40
2022-12-06T09:27:04.140Z,20.10
2022-12-06T09:29:33.827Z,12.70
2022-12-06T09:34:33.711Z,13.50
2022-12-06T09:37:13.061Z,10.95
2022-12-06T09:39:46.105Z,10.30
2022-12-06T09:42:26.924Z,10.15
2022-12-06T09:45:12.529Z,11.38
2022-12-06T09:48:10.568Z,10.32
2022-12-06T09:50:49.476Z,8.70
2022-12-06T09:53:16.485Z,8.75
2022-12-06T09:56:20.705Z,12.50
2022-12-06T09:59:11.283Z,7.90
2022-12-06T10:01:52.033Z,9.75
2022-12-06T10:04:35.867Z,6.15
2022-12-06T10:07:05.875Z,8.75
2022-12-06T10:09:39.002Z,6.68
2022-12-06T10:12:21.392Z,6.63
2022-12-06T10:15:16.862Z,9.85
2022-12-06T10:18:17.034Z,8.23
2022-12-06T10:20:57.732Z,7.75
2022-12-06T10:23:46.113Z,7.85
2022-12-06T10:26:34.259Z,6.03
2022-12-06T10:29:11.833Z,6.70
2022-12-06T10:31:56.860Z,7.03
2022-12-06T10:34:55.315Z,6.80
2022-12-06T10:37:22.465Z,6.00
2022-12-06T10:40:02.833Z,6.65
2022-12-06T10:43:16.260Z,9.00
2022-12-06T10:46:09.325Z,6.80
2022-12-06T10:48:43.605Z,7.45
2022-12-06T10:51:30.004Z,8.75
2022-12-06T10:54:10.220Z,8.35
2022-12-06T10:56:41.723Z,8.05
2022-12-06T10:59:30.000Z,7.75
2022-12-06T11:02:01.702Z,7.05
2022-12-06T11:04:38.822Z,9.40
2022-12-06T11:07:18.163Z,8.80
2022-12-06T11:09:51.068Z,7.25
2022-12-06T11:12:31.921Z,8.55
2022-12-06T11:15:07.263Z,6.40
2022-12-06T11:17:45.076Z,8.23
2022-12-06T11:20:48.098Z,9.35
2022-12-06T11:23:33.630Z,6.72
2022-12-06T11:26:15.063Z,10.07
2022-12-06T11:28:49.200Z,10.40
2022-12-06T11:31:37.485Z,5.25
2022-12-06T11:34:13.394Z,7.80
2022-12-06T11:36:42.941Z,7.53
2022-12-06T11:39:13.609Z,5.60
2022-12-06T11:41:47.473Z,4.93
2022-12-06T11:44:25.390Z,5.25
2022-12-06T11:46:59.388Z,5.22
2022-12-06T11:49:40.613Z,6.07
2022-12-06T11:52:20.300Z,6.70
2022-12-06T11:54:55.983Z,5.35
2022-12-06T11:57:28.830Z,4.88
2022-12-06T12:00:16.788Z,4.82
2022-12-06T12:02:53.802Z,4.60
2022-12-06T12:05:30.515Z,5.97
2022-12-06T12:08:17.223Z,4.07
2022-12-06T12:11:00.329Z,4.97
2022-12-06T12:13:44.171Z,5.60
2022-12-06T12:16:24.617Z,5.43
2022-12-06T12:18:58.334Z,5.00
2022-12-06T12:21:37.921Z,4.75
2022-12-06T12:24:06.931Z,4.43
2022-12-06T12:26:37.054Z,5.50
2022-12-06T12:29:19.783Z,4.05
2022-12-06T12:31:53.315Z,5.25
2022-12-06T12:34:22.044Z,4.32
2022-12-06T12:36:56.114Z,4.65
2022-12-06T12:39:31.738Z,4.93
2022-12-06T12:42:02.299Z,4.32
2022-12-06T12:44:38.793Z,4.75
2022-12-06T12:47:19.754Z,4.45
2022-12-06T12:50:01.069Z,5.85
2022-12-06T12:52:42.147Z,4.57
2022-12-06T12:55:12.663Z,4.10
2022-12-06T12:57:48.210Z,4.30
2022-12-06T13:00:20.143Z,6.32
2022-12-06T13:03:14.128Z,3.40
2022-12-06T13:05:53.675Z,3.95
2022-12-06T13:08:31.882Z,4.47
2022-12-06T13:11:01.951Z,3.55
2022-12-06T13:13:37.636Z,3.95
2022-12-06T13:16:11.801Z,4.32
2022-12-06T13:18:43.509Z,4.72
2022-12-06T13:21:27.702Z,3.45
2022-12-06T13:24:26.273Z,4.53
2022-12-06T13:27:00.785Z,3.75
2022-12-06T13:29:46.445Z,5.78
2022-12-06T13:32:48.836Z,3.08
2022-12-06T13:35:37.107Z,4.40
2022-12-06T13:38:26.975Z,4.22
2022-12-06T13:41:01.252Z,3.33
2022-12-06T13:43:32.774Z,2.90
2022-12-06T13:46:06.748Z,3.17
2022-12-06T13:49:24.181Z,2.83
2022-12-06T13:51:53.587Z,2.55
2022-12-06T13:54:20.658Z,3.55
2022-12-06T13:56:47.776Z,3.20
2022-12-06T13:59:17.136Z,3.78
2022-12-06T14:01:48.753Z,2.83
2022-12-06T14:07:04.334Z,2.85
2022-12-06T14:09:47.923Z,4.00
2022-12-06T14:12:19.946Z,3.30
2022-12-06T14:15:04.265Z,3.83
2022-12-06T14:20:33.453Z,4.30
2022-12-06T14:23:00.625Z,3.58
2022-12-06T14:25:30.311Z,4.60
2022-12-06T14:28:07.484Z,8.52
2022-12-06T14:30:37.241Z,2.90
2022-12-06T14:33:17.909Z,4.10
2022-12-06T14:35:54.714Z,4.18
2022-12-06T14:38:21.770Z,4.07
2022-12-06T14:41:13.806Z,2.42
2022-12-06T14:43:42.284Z,3.78
2022-12-06T14:46:17.795Z,3.97
2022-12-06T14:49:04.042Z,3.47
2022-12-06T14:51:40.905Z,4.82
2022-12-06T14:54:26.569Z,3.65
2022-12-06T14:56:56.218Z,3.65
2022-12-06T15:00:12.948Z,5.70
2022-12-06T15:02:24.968Z,9.73
2022-12-06T15:04:52.185Z,7.18
2022-12-06T15:07:30.285Z,4.03
2022-12-06T15:10:21.622Z,6.57
2022-12-06T15:12:55.842Z,6.85
2022-12-06T15:15:40.008Z,4.70
2022-12-06T15:18:13.936Z,9.15
2022-12-06T15:20:43.254Z,5.55
2022-12-06T15:23:40.761Z,7.25
2022-12-06T15:26:12.021Z,6.30
2022-12-06T15:28:41.914Z,6.07
2022-12-06T15:31:29.958Z,6.78
2022-12-06T15:33:57.273Z,7.72
2022-12-06T15:36:36.427Z,4.35
2022-12-06T15:39:06.169Z,4.47
2022-12-06T15:41:39.121Z,7.82
2022-12-06T15:44:08.474Z,7.28
2022-12-06T15:46:36.374Z,3.95
2022-12-06T15:49:03.497Z,7.05
2022-12-06T15:51:33.061Z,10.70
2022-12-06T15:54:00.306Z,6.78
2022-12-06T15:56:29.361Z,4.72
2022-12-06T15:58:56.773Z,11.00
2022-12-06T16:01:29.014Z,6.13
2022-12-06T16:03:59.011Z,7.72
2022-12-06T16:06:28.025Z,8.07
2022-12-06T16:09:00.479Z,6.30
2022-12-06T16:11:30.112Z,5.05
2022-12-06T16:13:59.556Z,5.90
2022-12-06T16:16:29.245Z,5.15
2022-12-06T16:18:56.385Z,7.53
2022-12-06T16:21:29.222Z,6.80
2022-12-06T16:24:16.750Z,5.35
2022-12-06T16:26:45.093Z,7.03
2022-12-06T16:29:24.881Z,4.65
2022-12-06T16:31:55.628Z,5.50
2022-12-06T16:34:27.392Z,5.93
2022-12-06T16:36:56.730Z,4.97
2022-12-06T16:39:24.695Z,4.72
2022-12-06T16:41:54.301Z,5.43
2022-12-06T16:44:21.793Z,7.53
2022-12-06T16:46:48.997Z,6.28
2022-12-06T16:49:48.443Z,6.63
2022-12-06T16:52:16.969Z,6.05
2022-12-06T16:54:46.504Z,6.40
2022-12-06T16:57:14.528Z,5.85
2022-12-06T16:59:46.450Z,8.98
2022-12-06T17:02:31.432Z,10.02
2022-12-06T17:05:06.290Z,4.68
2022-12-06T17:07:36.770Z,5.85
2022-12-06T17:10:06.820Z,10.57
2022-12-06T17:12:38.796Z,7.43
2022-12-06T17:15:11.832Z,4.63
2022-12-06T17:17:39.025Z,4.70
2022-12-06T17:20:11.485Z,5.10
2022-12-06T17:22:40.090Z,5.97
2022-12-06T17:25:10.959Z,4.07
2022-12-06T17:27:38.674Z,4.32
2022-12-06T17:30:12.155Z,7.65
2022-12-06T17:32:39.328Z,4.18
2022-12-06T17:35:11.213Z,6.03
2022-12-06T17:37:38.328Z,3.95
2022-12-06T17:40:06.888Z,6.82
2022-12-06T17:42:52.554Z,6.25
2022-12-06T17:45:24.550Z,5.07
2022-12-06T17:47:54.217Z,6.13
2022-12-06T17:50:21.406Z,4.38
2022-12-06T17:52:49.481Z,5.93
2022-12-06T17:55:21.580Z,5.40
2022-12-06T17:57:50.930Z,6.00
2022-12-06T18:00:18.355Z,6.43
2022-12-06T18:02:52.447Z,4.93
2022-12-06T18:05:19.714Z,5.38
2022-12-06T18:07:52.581Z,4.90
2022-12-06T18:10:22.607Z,6.25
2022-12-06T18:12:55.994Z,8.55
2022-12-06T18:15:43.677Z,4.40
2022-12-06T18:18:10.758Z,4.47
2022-12-06T18:20:37.922Z,4.05
2022-12-06T18:23:05.079Z,6.50
2022-12-06T18:25:32.158Z,6.55
2022-12-06T18:28:01.584Z,4.93
2022-12-06T18:30:28.798Z,4.90
2022-12-06T18:33:02.360Z,3.88
2022-12-06T18:35:29.669Z,4.28
2022-12-06T18:37:59.309Z,5.03
2022-12-06T18:40:26.363Z,6.07
2022-12-06T18:42:55.878Z,5.15
2022-12-06T18:45:28.298Z,4.30
2022-12-06T18:47:57.756Z,4.72
2022-12-06T18:50:27.043Z,3.38
2022-12-06T18:52:54.174Z,3.58
2022-12-06T18:55:23.623Z,4.57
2022-12-06T18:57:50.765Z,4.28
2022-12-06T19:00:18.189Z,4.57
2022-12-06T19:02:45.376Z,5.95
2022-12-06T19:05:12.475Z,4.22
2022-12-06T19:07:42.259Z,3.97
2022-12-06T19:10:11.710Z,3.95
2022-12-06T19:12:38.852Z,4.75
2022-12-06T19:15:09.383Z,4.55
2022-12-06T19:17:38.910Z,5.13
2022-12-06T19:20:08.748Z,4.75
2022-12-06T19:22:38.266Z,4.47
2022-12-06T19:25:08.106Z,3.65
2022-12-06T19:27:39.665Z,4.70
2022-12-06T19:30:08.108Z,4.35
2022-12-06T19:32:42.310Z,4.47
2022-12-06T19:35:11.554Z,4.10
2022-12-06T19:37:38.680Z,3.50
2022-12-06T19:40:08.463Z,3.28
2022-12-06T19:42:54.395Z,4.97
2022-12-06T19:45:23.889Z,11.20
2022-12-06T19:47:53.365Z,6.13
2022-12-06T19:50:22.797Z,3.85
2022-12-06T19:52:55.528Z,4.78
2022-12-06T19:55:22.600Z,3.63
2022-12-06T19:57:54.483Z,5.05
2022-12-06T20:00:23.008Z,3.60
2022-12-06T20:02:52.533Z,3.95
2022-12-06T20:05:19.823Z,3.60
2022-12-06T20:07:49.508Z,4.45
2022-12-06T20:10:18.936Z,3.92
2022-12-06T20:12:51.002Z,4.13
2022-12-06T20:15:21.065Z,3.80
2022-12-06T20:17:50.382Z,4.28
2022-12-06T20:20:17.532Z,3.92
2022-12-06T20:22:44.664Z,4.00
2022-12-06T20:25:14.103Z,3.60
2022-12-06T20:27:52.606Z,4.95
2022-12-06T20:30:21.769Z,3.97
2022-12-06T20:32:56.314Z,3.95
2022-12-06T20:35:27.529Z,3.88
2022-12-06T20:37:57.302Z,4.00
2022-12-06T20:40:31.215Z,3.35
2022-12-06T20:42:58.832Z,4.15
2022-12-06T20:45:28.174Z,3.50
2022-12-06T20:47:57.842Z,4.40
2022-12-06T20:50:27.219Z,4.40
2022-12-06T20:52:54.393Z,3.80
2022-12-06T20:55:28.700Z,3.92
2022-12-06T20:57:58.150Z,3.88
2022-12-06T21:00:28.169Z,2.97
2022-12-06T21:02:55.298Z,3.78
2022-12-06T21:05:24.998Z,3.85
2022-12-06T21:07:52.160Z,3.75
2022-12-06T21:10:19.264Z,3.50
2022-12-06T21:12:46.331Z,2.88
2022-12-06T21:15:15.775Z,3.88
2022-12-06T21:17:47.335Z,3.35
2022-12-06T21:20:17.132Z,3.55
2022-12-06T21:22:44.262Z,3.45
2022-12-06T21:25:11.378Z,3.75
2022-12-06T21:27:38.539Z,3.35
2022-12-06T21:30:08.512Z,4.30
2022-12-06T21:32:40.115Z,3.05
2022-12-06T21:35:10.576Z,3.28
2022-12-06T21:37:39.747Z,3.22
2022-12-06T21:40:12.652Z,4.03
2022-12-06T21:42:42.226Z,3.38
2022-12-06T21:45:09.671Z,2.90
2022-12-06T21:47:39.155Z,3.40
2022-12-06T21:50:06.835Z,4.18
2022-12-06T21:52:36.120Z,3.20
2022-12-06T21:55:05.800Z,3.40
2022-12-06T21:57:42.952Z,3.47
2022-12-06T22:00:12.744Z,4.40
2022-12-06T22:02:42.501Z,3.25
2022-12-06T22:05:10.225Z,3.88
2022-12-06T22:07:39.770Z,3.35
2022-12-06T22:10:10.628Z,4.25
2022-12-06T22:12:37.738Z,4.70
2022-12-06T22:15:05.320Z,3.65
2022-12-06T22:17:37.016Z,3.50
2022-12-06T22:20:07.053Z,4.50
2022-12-06T22:22:34.181Z,3.35
2022-12-06T22:25:01.445Z,3.42
2022-12-06T22:27:33.572Z,4.28
2022-12-06T22:30:03.760Z,3.03
2022-12-06T22:32:35.300Z,3.33
2022-12-06T22:35:02.483Z,3.25
2022-12-06T22:37:29.547Z,3.50
2022-12-06T22:39:56.607Z,3.40
2022-12-06T22:42:26.110Z,3.50
2022-12-06T22:44:53.239Z,3.00
2022-12-06T22:47:24.955Z,3.20
2022-12-06T22:49:52.232Z,3.22
2022-12-06T22:52:21.563Z,3.50
2022-12-06T22:54:48.774Z,3.22
2022-12-06T22:57:23.134Z,3.60
2022-12-06T22:59:50.309Z,3.15
2022-12-06T23:02:20.160Z,3.33
2022-12-06T23:04:49.514Z,4.68
2022-12-06T23:07:21.359Z,3.20
2022-12-06T23:09:48.483Z,3.25
2022-12-06T23:12:18.006Z,3.63
2022-12-06T23:14:47.447Z,3.63
2022-12-06T23:17:14.512Z,3.08
2022-12-06T23:19:41.613Z,3.50
2022-12-06T23:22:10.949Z,3.08
2022-12-06T23:24:38.094Z,3.28
2022-12-06T23:27:07.554Z,3.05
2022-12-06T23:29:37.402Z,3.22
2022-12-06T23:32:06.913Z,3.75
2022-12-06T23:34:36.977Z,3.47
2022-12-06T23:37:04.654Z,3.88
2022-12-06T23:39:31.717Z,3.60
2022-12-06T23:41:58.856Z,3.53
2022-12-06T23:44:25.947Z,2.88
2022-12-06T23:46:55.426Z,2.85
2022-12-06T23:49:22.682Z,3.40
2022-12-06T23:51:54.408Z,9.43
2022-12-06T23:54:21.541Z,4.00
2022-12-06T23:56:48.702Z,4.03
2022-12-06T23:59:19.232Z,4.40
